createdAt,value
2023-01-19T00:02:35.599Z,18.10
2023-01-19T00:07:38.224Z,15.50
2023-01-19T00:12:40.938Z,19.10
2023-01-19T00:17:43.559Z,17.80
2023-01-19T00:22:50.714Z,18.10
2023-01-19T00:27:53.345Z,18.10
2023-01-19T00:32:56.261Z,18.70
2023-01-19T00:37:59.515Z,19.60
2023-01-19T00:43:03.236Z,18.50
2023-01-19T00:48:06.432Z,19.00
2023-01-19T00:53:09.147Z,18.50
2023-01-19T00:58:11.769Z,19.50
2023-01-19T01:03:14.757Z,15.50
2023-01-19T01:08:17.405Z,17.20
2023-01-19T01:13:23.591Z,12.70
2023-01-19T01:18:28.225Z,18.00
2023-01-19T01:23:30.897Z,18.10
2023-01-19T01:28:33.516Z,16.40
2023-01-19T01:33:39.820Z,16.50
2023-01-19T01:38:44.036Z,15.90
2023-01-19T01:43:54.780Z,17.30
2023-01-19T01:49:00.353Z,17.10
2023-01-19T01:54:06.999Z,16.30
2023-01-19T01:59:26.140Z,10.50
2023-01-19T02:04:30.060Z,16.80
2023-01-19T02:09:39.621Z,16.00
2023-01-19T02:14:42.265Z,16.70
2023-01-19T02:19:46.431Z,16.40
2023-01-19T02:24:50.068Z,17.30
2023-01-19T02:29:53.207Z,16.70
2023-01-19T02:34:58.599Z,17.30
2023-01-19T02:40:04.163Z,16.10
2023-01-19T02:45:09.416Z,16.50
2023-01-19T02:50:17.838Z,17.00
2023-01-19T02:55:28.349Z,17.60
2023-01-19T03:00:56.059Z,17.90
2023-01-19T03:06:05.959Z,17.30
2023-01-19T03:11:12.685Z,17.50
2023-01-19T03:16:21.852Z,16.70
2023-01-19T03:21:28.681Z,16.20
2023-01-19T03:26:37.432Z,17.10
2023-01-19T03:31:45.775Z,16.80
2023-01-19T03:36:53.969Z,16.50
2023-01-19T03:42:04.928Z,16.40
2023-01-19T03:47:10.152Z,16.70
2023-01-19T03:52:12.924Z,16.80
2023-01-19T03:57:15.600Z,15.70
2023-01-19T04:02:18.247Z,15.00
2023-01-19T04:07:20.964Z,16.60
2023-01-19T04:12:23.729Z,17.80
2023-01-19T04:17:26.459Z,16.30
2023-01-19T04:22:30.374Z,18.50
2023-01-19T04:27:32.996Z,21.90
2023-01-19T04:32:37.721Z,21.70
2023-01-19T04:37:40.398Z,21.70
2023-01-19T04:42:44.938Z,19.90
2023-01-19T04:47:47.541Z,22.40
2023-01-19T04:52:50.219Z,20.60
2023-01-19T04:57:54.181Z,21.00
2023-01-19T05:02:56.880Z,20.30
2023-01-19T05:07:59.518Z,17.30
2023-01-19T05:13:02.627Z,20.40
2023-01-19T05:18:05.511Z,18.40
2023-01-19T05:23:08.144Z,16.10
2023-01-19T05:28:11.674Z,15.90
2023-01-19T05:33:16.835Z,14.00
2023-01-19T05:38:29.348Z,15.50
2023-01-19T05:43:36.636Z,16.30
2023-01-19T05:48:42.791Z,16.80
2023-01-19T05:53:45.434Z,17.40
2023-01-19T05:58:48.331Z,19.00
2023-01-19T06:03:51.003Z,17.40
2023-01-19T06:08:54.444Z,17.70
2023-01-19T06:13:57.101Z,18.90
2023-01-19T06:18:59.745Z,16.90
2023-01-19T06:24:03.553Z,18.00
2023-01-19T06:29:06.380Z,15.70
2023-01-19T06:34:10.041Z,16.00
2023-01-19T06:39:13.215Z,16.60
2023-01-19T06:44:15.895Z,14.40
2023-01-19T06:49:18.558Z,15.70
2023-01-19T06:54:21.880Z,13.90
2023-01-19T06:59:25.486Z,15.80
2023-01-19T07:04:28.092Z,15.90
2023-01-19T07:09:30.675Z,15.60
2023-01-19T07:14:33.975Z,15.70
2023-01-19T07:19:36.755Z,16.10
2023-01-19T07:24:39.362Z,15.60
2023-01-19T07:29:42.516Z,17.10
2023-01-19T07:34:45.399Z,15.30
2023-01-19T07:39:48.153Z,14.10
2023-01-19T07:44:50.727Z,13.70
2023-01-19T07:49:53.327Z,15.70
2023-01-19T07:54:55.920Z,13.50
2023-01-19T07:59:58.528Z,14.90
2023-01-19T08:05:01.224Z,16.20
2023-01-19T08:10:04.044Z,16.40
2023-01-19T08:15:07.345Z,15.50
2023-01-19T08:20:11.193Z,16.30
2023-01-19T08:25:13.813Z,16.70
2023-01-19T08:30:16.910Z,16.60
2023-01-19T08:35:19.493Z,17.10
2023-01-19T08:40:22.239Z,19.70
2023-01-19T08:45:24.906Z,20.50
2023-01-19T08:50:30.937Z,20.70
2023-01-19T08:55:36.220Z,20.10
2023-01-19T09:00:40.098Z,19.40
2023-01-19T09:05:42.837Z,19.80
2023-01-19T09:10:50.699Z,19.80
2023-01-19T09:15:53.482Z,21.60
2023-01-19T09:20:57.653Z,20.20
2023-01-19T09:26:03.024Z,19.50
2023-01-19T09:31:07.592Z,21.50
2023-01-19T09:36:10.686Z,20.90
2023-01-19T09:41:20.982Z,22.20
2023-01-19T09:46:38.876Z,22.40
2023-01-19T09:51:46.673Z,21.30
2023-01-19T09:56:52.448Z,21.00
2023-01-19T10:07:09.640Z,20.90
2023-01-19T10:12:35.217Z,20.60
2023-01-19T10:17:47.090Z,20.60
2023-01-19T10:22:50.636Z,18.90
2023-01-19T10:27:53.391Z,19.20
2023-01-19T10:32:56.096Z,17.50
2023-01-19T10:38:02.106Z,15.70
2023-01-19T10:43:10.850Z,15.40
2023-01-19T10:48:13.842Z,17.00
2023-01-19T10:53:22.223Z,16.70
2023-01-19T10:58:29.950Z,16.80
2023-01-19T11:03:32.599Z,14.80
2023-01-19T11:08:35.203Z,13.40
2023-01-19T11:13:43.859Z,14.90
2023-01-19T11:18:52.610Z,13.60
2023-01-19T11:23:57.855Z,12.50
2023-01-19T11:29:03.235Z,16.80
2023-01-19T11:34:21.764Z,17.10
2023-01-19T11:39:28.115Z,16.80
2023-01-19T11:44:36.289Z,17.10
2023-01-19T11:49:42.832Z,14.40
2023-01-19T11:55:01.496Z,14.60
2023-01-19T12:00:24.960Z,16.50
2023-01-19T12:05:36.056Z,15.90
2023-01-19T12:10:43.900Z,15.40
2023-01-19T12:15:48.414Z,15.50
2023-01-19T12:20:54.051Z,14.70
2023-01-19T12:26:02.493Z,14.50
2023-01-19T12:31:05.724Z,14.80
2023-01-19T12:36:14.182Z,14.60
2023-01-19T12:41:18.750Z,15.10
2023-01-19T12:46:24.239Z,15.30
2023-01-19T12:51:27.086Z,15.30
2023-01-19T12:56:33.971Z,17.60
2023-01-19T13:01:36.756Z,14.70
2023-01-19T13:06:45.227Z,16.00
2023-01-19T13:12:21.587Z,15.00
2023-01-19T13:17:31.912Z,16.60
2023-01-19T13:22:40.321Z,13.40
2023-01-19T13:27:43.129Z,16.20
2023-01-19T13:32:46.861Z,15.10
2023-01-19T13:37:50.688Z,14.90
2023-01-19T13:42:54.031Z,15.30
2023-01-19T13:47:59.848Z,13.60
2023-01-19T13:53:04.508Z,12.00
2023-01-19T13:58:23.240Z,11.50
2023-01-19T14:03:26.661Z,13.40
2023-01-19T14:08:31.169Z,14.70
2023-01-19T14:13:40.047Z,16.00
2023-01-19T14:18:45.179Z,10.70
2023-01-19T14:23:49.278Z,15.20
2023-01-19T14:28:51.939Z,14.40
2023-01-19T14:33:56.068Z,15.10
2023-01-19T14:39:00.986Z,16.20
2023-01-19T14:44:09.008Z,15.60
2023-01-19T14:49:21.672Z,14.80
2023-01-19T14:54:31.609Z,14.80
2023-01-19T14:59:34.296Z,14.00
2023-01-19T15:04:36.902Z,14.90
2023-01-19T15:09:39.823Z,14.70
2023-01-19T15:14:42.791Z,15.30
2023-01-19T15:19:45.414Z,14.10
2023-01-19T15:24:49.557Z,15.60
2023-01-19T15:29:52.232Z,14.70
2023-01-19T15:34:54.875Z,15.00
2023-01-19T15:39:57.705Z,15.60
2023-01-19T15:45:00.430Z,15.70
2023-01-19T15:50:03.058Z,15.20
2023-01-19T15:55:06.292Z,14.10
2023-01-19T16:00:09.820Z,12.10
2023-01-19T16:05:13.137Z,12.70
2023-01-19T16:10:16.932Z,13.70
2023-01-19T16:15:19.547Z,13.10
2023-01-19T16:20:22.184Z,13.40
2023-01-19T16:25:24.853Z,14.80
2023-01-19T16:30:27.493Z,16.70
2023-01-19T16:35:30.098Z,18.60
2023-01-19T16:40:32.726Z,18.60
2023-01-19T16:45:37.796Z,18.70
2023-01-19T16:50:40.414Z,16.60
2023-01-19T16:55:43.037Z,15.80
2023-01-19T17:00:45.790Z,14.70
2023-01-19T17:05:51.605Z,14.30
2023-01-19T17:11:27.006Z,14.80
2023-01-19T17:17:05.715Z,13.90
2023-01-19T17:22:12.858Z,13.60
2023-01-19T17:27:17.100Z,13.30
2023-01-19T17:32:19.691Z,12.70
2023-01-19T17:37:22.342Z,14.80
2023-01-19T17:42:24.990Z,15.20
2023-01-19T17:47:27.642Z,13.80
2023-01-19T17:52:30.281Z,13.70
2023-01-19T17:57:33.130Z,14.50
2023-01-19T18:02:36.025Z,15.30
2023-01-19T18:07:39.975Z,14.10
2023-01-19T18:12:42.641Z,14.50
2023-01-19T18:17:45.296Z,11.80
2023-01-19T18:22:47.989Z,12.90
2023-01-19T18:27:50.563Z,13.70
2023-01-19T18:32:53.170Z,14.30
2023-01-19T18:37:57.016Z,13.30
2023-01-19T18:42:59.609Z,13.90
2023-01-19T18:48:02.575Z,13.30
2023-01-19T18:53:05.242Z,14.30
2023-01-19T18:58:08.679Z,14.00
2023-01-19T19:03:11.341Z,14.00
2023-01-19T19:08:13.985Z,13.50
2023-01-19T19:13:17.608Z,14.30
2023-01-19T19:18:22.574Z,14.30
2023-01-19T19:23:25.315Z,14.30
2023-01-19T19:28:27.908Z,14.30
2023-01-19T19:33:30.699Z,14.40
2023-01-19T19:38:36.553Z,15.40
2023-01-19T19:43:41.897Z,14.00
2023-01-19T19:48:47.602Z,13.90
2023-01-19T19:53:51.852Z,13.90
2023-01-19T19:58:56.560Z,13.60
2023-01-19T20:04:06.626Z,12.30
2023-01-19T20:09:12.549Z,14.10
2023-01-19T20:14:16.146Z,11.40
2023-01-19T20:19:18.885Z,10.00
2023-01-19T20:24:21.575Z,20.60
2023-01-19T20:29:24.304Z,19.10
2023-01-19T20:34:32.958Z,15.20
2023-01-19T20:39:37.086Z,14.80
2023-01-19T20:44:39.970Z,12.80
2023-01-19T20:49:42.704Z,14.10
2023-01-19T20:54:45.395Z,12.90
2023-01-19T20:59:48.033Z,12.90
2023-01-19T21:04:53.116Z,12.30
2023-01-19T21:09:55.791Z,11.30
2023-01-19T21:15:00.911Z,10.80
2023-01-19T21:20:04.003Z,10.00
2023-01-19T21:25:07.561Z,9.30
2023-01-19T21:30:10.873Z,11.80
2023-01-19T21:35:13.993Z,10.60
2023-01-19T21:40:19.202Z,11.10
2023-01-19T21:45:22.266Z,10.90
2023-01-19T21:50:24.996Z,10.40
2023-01-19T21:55:28.080Z,10.90
2023-01-19T22:00:30.815Z,10.50
2023-01-19T22:05:36.740Z,11.00
2023-01-19T22:10:39.586Z,11.60
2023-01-19T22:15:42.191Z,11.60
2023-01-19T22:20:44.804Z,13.50
2023-01-19T22:25:47.548Z,13.90
2023-01-19T22:30:50.231Z,13.50
2023-01-19T22:35:52.850Z,12.80
2023-01-19T22:40:55.435Z,11.30
2023-01-19T22:45:58.957Z,12.40
2023-01-19T22:51:04.065Z,6.30
2023-01-19T22:56:13.028Z,10.80
2023-01-19T23:01:37.734Z,12.60
2023-01-19T23:06:40.490Z,12.90
2023-01-19T23:11:48.328Z,11.00
2023-01-19T23:16:51.283Z,13.60
2023-01-19T23:21:53.929Z,12.50
2023-01-19T23:26:56.542Z,12.60
2023-01-19T23:31:59.331Z,14.50
2023-01-19T23:37:01.955Z,14.30
2023-01-19T23:42:05.125Z,11.70
2023-01-19T23:47:07.705Z,13.20
2023-01-19T23:52:10.342Z,14.30
2023-01-19T23:57:12.959Z,15.30
